sensor_id;sensor_type;location;lat;lon;timestamp;temperature;humidity
16305;DHT22;8261;47.678;-122.174;2023-03-25T00:00:42;5.60;99.90
16305;DHT22;8261;47.678;-122.174;2023-03-25T00:03:13;5.60;99.90
16305;DHT22;8261;47.678;-122.174;2023-03-25T00:05:45;5.60;99.90
16305;DHT22;8261;47.678;-122.174;2023-03-25T00:08:16;5.60;99.90
16305;DHT22;8261;47.678;-122.174;2023-03-25T00:10:51;5.60;99.90
16305;DHT22;8261;47.678;-122.174;2023-03-25T00:13:25;5.60;99.90
16305;DHT22;8261;47.678;-122.174;2023-03-25T00:15:56;5.60;99.90
16305;DHT22;8261;47.678;-122.174;2023-03-25T00:18:29;5.70;99.90
16305;DHT22;8261;47.678;-122.174;2023-03-25T00:21:05;5.70;99.90
16305;DHT22;8261;47.678;-122.174;2023-03-25T00:23:38;5.70;99.90
16305;DHT22;8261;47.678;-122.174;2023-03-25T00:26:09;5.70;99.90
16305;DHT22;8261;47.678;-122.174;2023-03-25T00:28:43;5.70;99.90
16305;DHT22;8261;47.678;-122.174;2023-03-25T00:31:14;5.70;99.90
16305;DHT22;8261;47.678;-122.174;2023-03-25T00:33:45;5.70;99.90
16305;DHT22;8261;47.678;-122.174;2023-03-25T00:36:18;5.70;99.90
16305;DHT22;8261;47.678;-122.174;2023-03-25T00:38:49;5.70;99.90
16305;DHT22;8261;47.678;-122.174;2023-03-25T00:41:21;5.70;99.90
16305;DHT22;8261;47.678;-122.174;2023-03-25T00:43:55;5.70;99.90
16305;DHT22;8261;47.678;-122.174;2023-03-25T00:46:28;5.70;99.90
16305;DHT22;8261;47.678;-122.174;2023-03-25T00:49:00;5.70;99.90
16305;DHT22;8261;47.678;-122.174;2023-03-25T00:51:31;5.60;99.90
16305;DHT22;8261;47.678;-122.174;2023-03-25T00:54:20;5.60;99.90
16305;DHT22;8261;47.678;-122.174;2023-03-25T00:56:52;5.50;99.90
16305;DHT22;8261;47.678;-122.174;2023-03-25T00:59:25;5.50;99.90
16305;DHT22;8261;47.678;-122.174;2023-03-25T01:01:56;5.40;99.90
16305;DHT22;8261;47.678;-122.174;2023-03-25T01:04:28;5.30;99.90
16305;DHT22;8261;47.678;-122.174;2023-03-25T01:06:59;5.30;99.90
16305;DHT22;8261;47.678;-122.174;2023-03-25T01:09:31;5.20;99.90
16305;DHT22;8261;47.678;-122.174;2023-03-25T01:12:01;5.20;99.90
16305;DHT22;8261;47.678;-122.174;2023-03-25T01:14:34;5.10;99.90
16305;DHT22;8261;47.678;-122.174;2023-03-25T01:17:05;5.10;99.90
16305;DHT22;8261;47.678;-122.174;2023-03-25T01:19:36;5.00;99.90
16305;DHT22;8261;47.678;-122.174;2023-03-25T01:22:08;4.90;99.90
16305;DHT22;8261;47.678;-122.174;2023-03-25T01:24:39;4.80;99.90
16305;DHT22;8261;47.678;-122.174;2023-03-25T01:27:10;4.70;99.90
16305;DHT22;8261;47.678;-122.174;2023-03-25T01:29:45;4.70;99.90
16305;DHT22;8261;47.678;-122.174;2023-03-25T01:32:17;4.70;99.90
16305;DHT22;8261;47.678;-122.174;2023-03-25T01:34:50;4.60;99.90
16305;DHT22;8261;47.678;-122.174;2023-03-25T01:37:21;4.60;99.90
16305;DHT22;8261;47.678;-122.174;2023-03-25T01:39:53;4.50;99.90
16305;DHT22;8261;47.678;-122.174;2023-03-25T01:42:28;4.40;99.90
16305;DHT22;8261;47.678;-122.174;2023-03-25T01:45:24;4.30;99.90
16305;DHT22;8261;47.678;-122.174;2023-03-25T01:48:01;4.20;99.90
16305;DHT22;8261;47.678;-122.174;2023-03-25T01:50:35;4.10;99.90
16305;DHT22;8261;47.678;-122.174;2023-03-25T01:53:10;4.10;99.90
16305;DHT22;8261;47.678;-122.174;2023-03-25T01:55:43;4.10;99.90
16305;DHT22;8261;47.678;-122.174;2023-03-25T01:58:17;4.10;99.90
16305;DHT22;8261;47.678;-122.174;2023-03-25T02:00:53;4.10;99.90
16305;DHT22;8261;47.678;-122.174;2023-03-25T02:03:25;4.10;99.90
16305;DHT22;8261;47.678;-122.174;2023-03-25T02:06:01;4.10;99.90
16305;DHT22;8261;47.678;-122.174;2023-03-25T02:08:37;4.20;99.90
16305;DHT22;8261;47.678;-122.174;2023-03-25T02:11:09;4.20;99.90
16305;DHT22;8261;47.678;-122.174;2023-03-25T02:13:42;4.20;99.90
16305;DHT22;8261;47.678;-122.174;2023-03-25T02:16:23;4.20;99.90
16305;DHT22;8261;47.678;-122.174;2023-03-25T02:19:10;4.30;99.90
16305;DHT22;8261;47.678;-122.174;2023-03-25T02:22:15;4.30;99.90
16305;DHT22;8261;47.678;-122.174;2023-03-25T02:27:59;4.40;99.90
16305;DHT22;8261;47.678;-122.174;2023-03-25T02:30:49;4.30;99.90
16305;DHT22;8261;47.678;-122.174;2023-03-25T02:33:36;4.30;99.90
16305;DHT22;8261;47.678;-122.174;2023-03-25T02:36:48;4.30;99.90
16305;DHT22;8261;47.678;-122.174;2023-03-25T02:39:32;4.10;99.90
16305;DHT22;8261;47.678;-122.174;2023-03-25T02:42:14;4.10;99.90
16305;DHT22;8261;47.678;-122.174;2023-03-25T02:44:55;4.10;99.90
16305;DHT22;8261;47.678;-122.174;2023-03-25T02:47:30;4.10;99.90
16305;DHT22;8261;47.678;-122.174;2023-03-25T02:50:06;4.10;99.90
16305;DHT22;8261;47.678;-122.174;2023-03-25T02:58:11;3.70;99.90
16305;DHT22;8261;47.678;-122.174;2023-03-25T03:00:46;3.80;99.90
16305;DHT22;8261;47.678;-122.174;2023-03-25T03:03:20;3.80;99.90
16305;DHT22;8261;47.678;-122.174;2023-03-25T03:05:54;3.70;99.90
16305;DHT22;8261;47.678;-122.174;2023-03-25T03:08:40;3.70;99.90
16305;DHT22;8261;47.678;-122.174;2023-03-25T03:11:18;3.70;99.90
16305;DHT22;8261;47.678;-122.174;2023-03-25T03:16:41;3.80;99.90
16305;DHT22;8261;47.678;-122.174;2023-03-25T03:21:55;3.90;99.90
16305;DHT22;8261;47.678;-122.174;2023-03-25T03:24:31;4.00;99.90
16305;DHT22;8261;47.678;-122.174;2023-03-25T03:27:08;4.00;99.90
16305;DHT22;8261;47.678;-122.174;2023-03-25T03:29:45;4.10;99.90
16305;DHT22;8261;47.678;-122.174;2023-03-25T03:32:27;4.10;99.90
16305;DHT22;8261;47.678;-122.174;2023-03-25T03:35:02;4.20;99.90
16305;DHT22;8261;47.678;-122.174;2023-03-25T03:37:38;4.20;99.90
16305;DHT22;8261;47.678;-122.174;2023-03-25T03:40:12;4.20;99.90
16305;DHT22;8261;47.678;-122.174;2023-03-25T03:42:50;4.20;99.90
16305;DHT22;8261;47.678;-122.174;2023-03-25T03:45:28;4.20;99.90
16305;DHT22;8261;47.678;-122.174;2023-03-25T03:48:06;4.30;99.90
16305;DHT22;8261;47.678;-122.174;2023-03-25T03:50:43;4.20;99.90
16305;DHT22;8261;47.678;-122.174;2023-03-25T03:53:21;4.30;99.90
16305;DHT22;8261;47.678;-122.174;2023-03-25T03:55:57;4.20;99.90
16305;DHT22;8261;47.678;-122.174;2023-03-25T04:09:23;4.10;99.90
16305;DHT22;8261;47.678;-122.174;2023-03-25T04:11:58;4.00;99.90
16305;DHT22;8261;47.678;-122.174;2023-03-25T04:14:30;4.00;99.90
16305;DHT22;8261;47.678;-122.174;2023-03-25T04:17:01;4.10;99.90
16305;DHT22;8261;47.678;-122.174;2023-03-25T04:19:34;4.00;99.90
16305;DHT22;8261;47.678;-122.174;2023-03-25T04:22:05;3.90;99.90
16305;DHT22;8261;47.678;-122.174;2023-03-25T04:24:39;3.70;99.90
16305;DHT22;8261;47.678;-122.174;2023-03-25T04:27:11;3.60;99.90
16305;DHT22;8261;47.678;-122.174;2023-03-25T04:29:43;3.60;99.90
16305;DHT22;8261;47.678;-122.174;2023-03-25T04:32:16;3.70;99.90
16305;DHT22;8261;47.678;-122.174;2023-03-25T04:34:48;3.70;99.90
16305;DHT22;8261;47.678;-122.174;2023-03-25T04:37:19;3.60;99.90
16305;DHT22;8261;47.678;-122.174;2023-03-25T04:39:55;3.60;99.90
16305;DHT22;8261;47.678;-122.174;2023-03-25T04:42:28;3.60;99.90
16305;DHT22;8261;47.678;-122.174;2023-03-25T04:45:01;3.60;99.90
16305;DHT22;8261;47.678;-122.174;2023-03-25T04:47:33;3.60;99.90
16305;DHT22;8261;47.678;-122.174;2023-03-25T04:50:05;3.70;99.90
16305;DHT22;8261;47.678;-122.174;2023-03-25T04:52:37;3.60;99.90
16305;DHT22;8261;47.678;-122.174;2023-03-25T04:55:12;3.50;99.90
16305;DHT22;8261;47.678;-122.174;2023-03-25T04:57:45;3.50;99.90
16305;DHT22;8261;47.678;-122.174;2023-03-25T05:00:19;3.50;99.90
16305;DHT22;8261;47.678;-122.174;2023-03-25T05:02:52;3.40;99.90
16305;DHT22;8261;47.678;-122.174;2023-03-25T05:05:25;3.20;99.90
16305;DHT22;8261;47.678;-122.174;2023-03-25T05:07:57;3.10;99.90
16305;DHT22;8261;47.678;-122.174;2023-03-25T05:10:32;3.10;99.90
16305;DHT22;8261;47.678;-122.174;2023-03-25T05:13:06;3.10;99.90
16305;DHT22;8261;47.678;-122.174;2023-03-25T05:15:37;3.00;99.90
16305;DHT22;8261;47.678;-122.174;2023-03-25T05:18:11;2.90;99.90
16305;DHT22;8261;47.678;-122.174;2023-03-25T05:20:45;2.90;99.90
16305;DHT22;8261;47.678;-122.174;2023-03-25T05:23:18;2.90;99.90
16305;DHT22;8261;47.678;-122.174;2023-03-25T05:25:53;2.90;99.90
16305;DHT22;8261;47.678;-122.174;2023-03-25T05:28:25;2.80;99.90
16305;DHT22;8261;47.678;-122.174;2023-03-25T05:30:58;2.70;99.90
16305;DHT22;8261;47.678;-122.174;2023-03-25T05:33:29;2.70;99.90
16305;DHT22;8261;47.678;-122.174;2023-03-25T05:36:02;2.70;99.90
16305;DHT22;8261;47.678;-122.174;2023-03-25T06:05:29;1.80;99.90
16305;DHT22;8261;47.678;-122.174;2023-03-25T06:08:02;1.90;99.90
16305;DHT22;8261;47.678;-122.174;2023-03-25T06:10:38;2.00;99.90
16305;DHT22;8261;47.678;-122.174;2023-03-25T06:13:09;1.90;99.90
16305;DHT22;8261;47.678;-122.174;2023-03-25T06:15:41;2.10;99.90
16305;DHT22;8261;47.678;-122.174;2023-03-25T06:18:13;2.00;99.90
16305;DHT22;8261;47.678;-122.174;2023-03-25T06:20:47;1.90;99.90
16305;DHT22;8261;47.678;-122.174;2023-03-25T06:23:19;1.90;99.90
16305;DHT22;8261;47.678;-122.174;2023-03-25T06:25:52;1.90;99.90
16305;DHT22;8261;47.678;-122.174;2023-03-25T06:28:23;1.90;99.90
16305;DHT22;8261;47.678;-122.174;2023-03-25T06:30:54;1.90;99.90
16305;DHT22;8261;47.678;-122.174;2023-03-25T06:33:26;1.80;99.90
16305;DHT22;8261;47.678;-122.174;2023-03-25T06:36:13;1.80;99.90
16305;DHT22;8261;47.678;-122.174;2023-03-25T06:38:48;1.80;99.90
16305;DHT22;8261;47.678;-122.174;2023-03-25T06:41:20;1.70;99.90
16305;DHT22;8261;47.678;-122.174;2023-03-25T06:43:52;1.70;99.90
16305;DHT22;8261;47.678;-122.174;2023-03-25T06:46:24;1.70;99.90
16305;DHT22;8261;47.678;-122.174;2023-03-25T06:48:55;1.70;99.90
16305;DHT22;8261;47.678;-122.174;2023-03-25T06:51:27;1.70;99.90
16305;DHT22;8261;47.678;-122.174;2023-03-25T06:53:59;1.70;99.90
16305;DHT22;8261;47.678;-122.174;2023-03-25T06:56:30;1.70;99.90
16305;DHT22;8261;47.678;-122.174;2023-03-25T06:59:03;1.80;99.90
16305;DHT22;8261;47.678;-122.174;2023-03-25T07:01:35;1.80;99.90
16305;DHT22;8261;47.678;-122.174;2023-03-25T07:04:06;1.80;99.90
16305;DHT22;8261;47.678;-122.174;2023-03-25T07:06:40;1.80;99.90
16305;DHT22;8261;47.678;-122.174;2023-03-25T07:09:12;1.80;99.90
16305;DHT22;8261;47.678;-122.174;2023-03-25T07:11:43;1.80;99.90
16305;DHT22;8261;47.678;-122.174;2023-03-25T07:14:15;1.80;99.90
16305;DHT22;8261;47.678;-122.174;2023-03-25T07:16:46;1.70;99.90
16305;DHT22;8261;47.678;-122.174;2023-03-25T07:19:18;1.60;99.90
16305;DHT22;8261;47.678;-122.174;2023-03-25T07:21:51;1.60;99.90
16305;DHT22;8261;47.678;-122.174;2023-03-25T07:24:22;1.70;99.90
16305;DHT22;8261;47.678;-122.174;2023-03-25T07:26:53;1.70;99.90
16305;DHT22;8261;47.678;-122.174;2023-03-25T07:29:25;1.70;99.90
16305;DHT22;8261;47.678;-122.174;2023-03-25T07:31:57;1.70;99.90
16305;DHT22;8261;47.678;-122.174;2023-03-25T07:34:29;1.60;99.90
16305;DHT22;8261;47.678;-122.174;2023-03-25T07:37:03;1.70;99.90
16305;DHT22;8261;47.678;-122.174;2023-03-25T07:39:36;1.70;99.90
16305;DHT22;8261;47.678;-122.174;2023-03-25T07:42:08;1.70;99.90
16305;DHT22;8261;47.678;-122.174;2023-03-25T07:44:40;1.70;99.90
16305;DHT22;8261;47.678;-122.174;2023-03-25T07:47:12;1.50;99.90
16305;DHT22;8261;47.678;-122.174;2023-03-25T07:49:43;1.60;99.90
16305;DHT22;8261;47.678;-122.174;2023-03-25T07:52:16;1.70;99.90
16305;DHT22;8261;47.678;-122.174;2023-03-25T07:54:48;1.70;99.90
16305;DHT22;8261;47.678;-122.174;2023-03-25T07:57:19;1.70;99.90
16305;DHT22;8261;47.678;-122.174;2023-03-25T07:59:50;1.70;99.90
16305;DHT22;8261;47.678;-122.174;2023-03-25T08:02:21;1.70;99.90
16305;DHT22;8261;47.678;-122.174;2023-03-25T08:04:53;1.70;99.90
16305;DHT22;8261;47.678;-122.174;2023-03-25T08:07:26;1.70;99.90
16305;DHT22;8261;47.678;-122.174;2023-03-25T08:09:58;1.70;99.90
16305;DHT22;8261;47.678;-122.174;2023-03-25T08:12:30;1.70;99.90
16305;DHT22;8261;47.678;-122.174;2023-03-25T08:15:02;1.80;99.90
16305;DHT22;8261;47.678;-122.174;2023-03-25T08:17:34;1.80;99.90
16305;DHT22;8261;47.678;-122.174;2023-03-25T08:20:06;1.80;99.90
16305;DHT22;8261;47.678;-122.174;2023-03-25T08:22:43;1.80;99.90
16305;DHT22;8261;47.678;-122.174;2023-03-25T08:25:16;1.90;99.90
16305;DHT22;8261;47.678;-122.174;2023-03-25T08:27:47;1.90;99.90
16305;DHT22;8261;47.678;-122.174;2023-03-25T08:30:19;1.90;99.90
16305;DHT22;8261;47.678;-122.174;2023-03-25T08:32:51;1.90;99.90
16305;DHT22;8261;47.678;-122.174;2023-03-25T08:35:23;2.00;99.90
16305;DHT22;8261;47.678;-122.174;2023-03-25T08:37:57;1.90;99.90
16305;DHT22;8261;47.678;-122.174;2023-03-25T08:40:33;2.00;99.90
16305;DHT22;8261;47.678;-122.174;2023-03-25T08:43:04;1.80;99.90
16305;DHT22;8261;47.678;-122.174;2023-03-25T08:45:36;1.80;99.90
16305;DHT22;8261;47.678;-122.174;2023-03-25T08:48:08;1.80;99.90
16305;DHT22;8261;47.678;-122.174;2023-03-25T08:50:39;1.90;99.90
16305;DHT22;8261;47.678;-122.174;2023-03-25T08:53:13;2.00;99.90
16305;DHT22;8261;47.678;-122.174;2023-03-25T08:55:44;2.00;99.90
16305;DHT22;8261;47.678;-122.174;2023-03-25T08:58:16;2.00;99.90
16305;DHT22;8261;47.678;-122.174;2023-03-25T09:00:48;2.10;99.90
16305;DHT22;8261;47.678;-122.174;2023-03-25T09:03:21;2.10;99.90
16305;DHT22;8261;47.678;-122.174;2023-03-25T09:05:55;2.20;99.90
16305;DHT22;8261;47.678;-122.174;2023-03-25T09:08:29;2.20;99.90
16305;DHT22;8261;47.678;-122.174;2023-03-25T09:11:01;2.10;99.90
16305;DHT22;8261;47.678;-122.174;2023-03-25T09:13:32;2.20;99.90
16305;DHT22;8261;47.678;-122.174;2023-03-25T09:16:05;2.20;99.90
16305;DHT22;8261;47.678;-122.174;2023-03-25T09:18:37;2.20;99.90
16305;DHT22;8261;47.678;-122.174;2023-03-25T09:21:09;2.20;99.90
16305;DHT22;8261;47.678;-122.174;2023-03-25T09:23:42;2.00;99.90
16305;DHT22;8261;47.678;-122.174;2023-03-25T09:26:15;1.90;99.90
16305;DHT22;8261;47.678;-122.174;2023-03-25T09:28:47;1.90;99.90
16305;DHT22;8261;47.678;-122.174;2023-03-25T09:31:18;1.90;99.90
16305;DHT22;8261;47.678;-122.174;2023-03-25T09:33:51;1.90;99.90
16305;DHT22;8261;47.678;-122.174;2023-03-25T09:36:22;1.90;99.90
16305;DHT22;8261;47.678;-122.174;2023-03-25T09:38:56;1.80;99.90
16305;DHT22;8261;47.678;-122.174;2023-03-25T09:41:40;1.80;99.90
16305;DHT22;8261;47.678;-122.174;2023-03-25T09:44:21;1.80;99.90
16305;DHT22;8261;47.678;-122.174;2023-03-25T09:46:58;1.80;99.90
16305;DHT22;8261;47.678;-122.174;2023-03-25T09:49:35;1.90;99.90
16305;DHT22;8261;47.678;-122.174;2023-03-25T09:52:13;1.90;99.90
16305;DHT22;8261;47.678;-122.174;2023-03-25T09:54:50;1.90;99.90
16305;DHT22;8261;47.678;-122.174;2023-03-25T09:57:26;2.00;99.90
16305;DHT22;8261;47.678;-122.174;2023-03-25T10:00:00;2.00;99.90
16305;DHT22;8261;47.678;-122.174;2023-03-25T10:02:38;2.00;99.90
16305;DHT22;8261;47.678;-122.174;2023-03-25T10:05:18;2.00;99.90
16305;DHT22;8261;47.678;-122.174;2023-03-25T10:08:04;2.00;99.90
16305;DHT22;8261;47.678;-122.174;2023-03-25T10:10:48;2.00;99.90
16305;DHT22;8261;47.678;-122.174;2023-03-25T10:13:27;2.00;99.90
16305;DHT22;8261;47.678;-122.174;2023-03-25T10:16:10;2.00;99.90
16305;DHT22;8261;47.678;-122.174;2023-03-25T10:18:55;2.10;99.90
16305;DHT22;8261;47.678;-122.174;2023-03-25T10:21:36;2.00;99.90
16305;DHT22;8261;47.678;-122.174;2023-03-25T10:24:17;2.00;99.90
16305;DHT22;8261;47.678;-122.174;2023-03-25T10:26:54;2.00;99.90
16305;DHT22;8261;47.678;-122.174;2023-03-25T10:29:31;2.00;99.90
16305;DHT22;8261;47.678;-122.174;2023-03-25T10:32:06;2.00;99.90
16305;DHT22;8261;47.678;-122.174;2023-03-25T10:34:43;2.00;99.90
16305;DHT22;8261;47.678;-122.174;2023-03-25T10:37:24;2.00;99.90
16305;DHT22;8261;47.678;-122.174;2023-03-25T10:40:08;2.00;99.90
16305;DHT22;8261;47.678;-122.174;2023-03-25T10:42:49;1.90;99.90
16305;DHT22;8261;47.678;-122.174;2023-03-25T10:45:23;1.90;99.90
16305;DHT22;8261;47.678;-122.174;2023-03-25T10:48:00;1.80;99.90
16305;DHT22;8261;47.678;-122.174;2023-03-25T10:50:36;1.80;99.90
16305;DHT22;8261;47.678;-122.174;2023-03-25T10:53:17;1.80;99.90
16305;DHT22;8261;47.678;-122.174;2023-03-25T10:55:52;1.70;99.90
16305;DHT22;8261;47.678;-122.174;2023-03-25T10:58:27;1.70;99.90
16305;DHT22;8261;47.678;-122.174;2023-03-25T11:01:00;1.70;99.90
16305;DHT22;8261;47.678;-122.174;2023-03-25T11:03:35;1.70;99.90
16305;DHT22;8261;47.678;-122.174;2023-03-25T11:06:08;1.60;99.90
16305;DHT22;8261;47.678;-122.174;2023-03-25T11:08:56;1.70;99.90
16305;DHT22;8261;47.678;-122.174;2023-03-25T11:11:31;1.60;99.90
16305;DHT22;8261;47.678;-122.174;2023-03-25T11:14:05;1.60;99.90
16305;DHT22;8261;47.678;-122.174;2023-03-25T11:16:42;1.70;99.90
16305;DHT22;8261;47.678;-122.174;2023-03-25T11:19:21;1.70;99.90
16305;DHT22;8261;47.678;-122.174;2023-03-25T11:21:56;1.70;99.90
16305;DHT22;8261;47.678;-122.174;2023-03-25T11:24:31;1.60;99.90
16305;DHT22;8261;47.678;-122.174;2023-03-25T11:27:07;1.60;99.90
16305;DHT22;8261;47.678;-122.174;2023-03-25T11:29:41;1.60;99.90
16305;DHT22;8261;47.678;-122.174;2023-03-25T11:32:23;1.60;99.90
16305;DHT22;8261;47.678;-122.174;2023-03-25T11:34:55;1.70;99.90
16305;DHT22;8261;47.678;-122.174;2023-03-25T11:37:29;1.70;99.90
16305;DHT22;8261;47.678;-122.174;2023-03-25T11:40:08;1.70;99.90
16305;DHT22;8261;47.678;-122.174;2023-03-25T11:42:44;1.80;99.90
16305;DHT22;8261;47.678;-122.174;2023-03-25T11:45:25;1.80;99.90
16305;DHT22;8261;47.678;-122.174;2023-03-25T11:48:00;1.80;99.90
16305;DHT22;8261;47.678;-122.174;2023-03-25T11:50:32;1.80;99.90
16305;DHT22;8261;47.678;-122.174;2023-03-25T11:53:05;1.80;99.90
16305;DHT22;8261;47.678;-122.174;2023-03-25T11:55:43;1.90;99.90
16305;DHT22;8261;47.678;-122.174;2023-03-25T11:58:17;1.90;99.90
16305;DHT22;8261;47.678;-122.174;2023-03-25T12:00:59;1.90;99.90
16305;DHT22;8261;47.678;-122.174;2023-03-25T12:03:32;1.90;99.90
16305;DHT22;8261;47.678;-122.174;2023-03-25T12:06:05;1.90;99.90
16305;DHT22;8261;47.678;-122.174;2023-03-25T12:08:42;1.90;99.90
16305;DHT22;8261;47.678;-122.174;2023-03-25T12:11:19;1.90;99.90
16305;DHT22;8261;47.678;-122.174;2023-03-25T12:14:16;1.80;99.90
16305;DHT22;8261;47.678;-122.174;2023-03-25T12:16:59;1.90;99.90
16305;DHT22;8261;47.678;-122.174;2023-03-25T12:19:41;1.90;99.90
16305;DHT22;8261;47.678;-122.174;2023-03-25T12:22:25;1.90;99.90
16305;DHT22;8261;47.678;-122.174;2023-03-25T12:25:14;2.00;99.90
16305;DHT22;8261;47.678;-122.174;2023-03-25T12:28:11;2.00;99.90
16305;DHT22;8261;47.678;-122.174;2023-03-25T12:30:54;2.00;99.90
16305;DHT22;8261;47.678;-122.174;2023-03-25T12:33:38;2.00;99.90
16305;DHT22;8261;47.678;-122.174;2023-03-25T12:36:30;1.90;99.90
16305;DHT22;8261;47.678;-122.174;2023-03-25T12:39:16;1.90;99.90
16305;DHT22;8261;47.678;-122.174;2023-03-25T12:42:14;1.80;99.90
16305;DHT22;8261;47.678;-122.174;2023-03-25T12:47:47;1.80;99.90
16305;DHT22;8261;47.678;-122.174;2023-03-25T12:50:35;1.90;99.90
16305;DHT22;8261;47.678;-122.174;2023-03-25T12:53:22;1.80;99.90
16305;DHT22;8261;47.678;-122.174;2023-03-25T12:56:06;1.80;99.90
16305;DHT22;8261;47.678;-122.174;2023-03-25T12:59:15;1.80;99.90
16305;DHT22;8261;47.678;-122.174;2023-03-25T13:01:57;1.80;99.90
16305;DHT22;8261;47.678;-122.174;2023-03-25T13:04:50;1.70;99.90
16305;DHT22;8261;47.678;-122.174;2023-03-25T13:07:30;1.70;99.90
16305;DHT22;8261;47.678;-122.174;2023-03-25T13:10:11;1.70;99.90
16305;DHT22;8261;47.678;-122.174;2023-03-25T13:12:48;1.70;99.90
16305;DHT22;8261;47.678;-122.174;2023-03-25T13:15:23;1.70;99.90
16305;DHT22;8261;47.678;-122.174;2023-03-25T13:17:58;1.70;99.90
16305;DHT22;8261;47.678;-122.174;2023-03-25T13:20:34;1.70;99.90
16305;DHT22;8261;47.678;-122.174;2023-03-25T13:23:13;1.70;99.90
16305;DHT22;8261;47.678;-122.174;2023-03-25T13:25:49;1.70;99.90
16305;DHT22;8261;47.678;-122.174;2023-03-25T13:28:24;1.70;99.90
16305;DHT22;8261;47.678;-122.174;2023-03-25T13:30:57;1.70;99.90
16305;DHT22;8261;47.678;-122.174;2023-03-25T13:33:35;1.80;99.90
16305;DHT22;8261;47.678;-122.174;2023-03-25T13:36:13;1.80;99.90
16305;DHT22;8261;47.678;-122.174;2023-03-25T13:38:52;1.80;99.90
16305;DHT22;8261;47.678;-122.174;2023-03-25T13:41:31;1.80;99.90
16305;DHT22;8261;47.678;-122.174;2023-03-25T13:44:09;1.80;99.90
16305;DHT22;8261;47.678;-122.174;2023-03-25T13:46:45;1.80;99.90
16305;DHT22;8261;47.678;-122.174;2023-03-25T13:49:24;1.90;99.90
16305;DHT22;8261;47.678;-122.174;2023-03-25T13:51:57;1.90;99.90
16305;DHT22;8261;47.678;-122.174;2023-03-25T13:54:33;1.90;99.90
16305;DHT22;8261;47.678;-122.174;2023-03-25T13:57:30;2.00;99.90
16305;DHT22;8261;47.678;-122.174;2023-03-25T14:06:46;2.00;99.90
16305;DHT22;8261;47.678;-122.174;2023-03-25T14:10:22;2.00;99.90
16305;DHT22;8261;47.678;-122.174;2023-03-25T14:12:57;2.10;99.90
16305;DHT22;8261;47.678;-122.174;2023-03-25T14:15:32;2.00;99.90
16305;DHT22;8261;47.678;-122.174;2023-03-25T14:18:14;2.10;99.90
16305;DHT22;8261;47.678;-122.174;2023-03-25T14:20:46;2.10;99.90
16305;DHT22;8261;47.678;-122.174;2023-03-25T14:23:19;2.10;99.90
16305;DHT22;8261;47.678;-122.174;2023-03-25T14:25:57;2.20;99.90
16305;DHT22;8261;47.678;-122.174;2023-03-25T14:28:35;2.20;99.90
16305;DHT22;8261;47.678;-122.174;2023-03-25T14:31:24;2.10;99.90
16305;DHT22;8261;47.678;-122.174;2023-03-25T14:34:21;1.90;99.90
16305;DHT22;8261;47.678;-122.174;2023-03-25T14:37:17;1.90;99.90
16305;DHT22;8261;47.678;-122.174;2023-03-25T14:39:49;1.90;99.90
16305;DHT22;8261;47.678;-122.174;2023-03-25T14:42:30;2.00;99.90
16305;DHT22;8261;47.678;-122.174;2023-03-25T14:45:33;2.00;99.90
16305;DHT22;8261;47.678;-122.174;2023-03-25T14:48:33;2.10;99.90
16305;DHT22;8261;47.678;-122.174;2023-03-25T14:51:13;2.20;99.90
16305;DHT22;8261;47.678;-122.174;2023-03-25T14:53:54;2.10;99.90
16305;DHT22;8261;47.678;-122.174;2023-03-25T14:56:33;2.10;99.90
16305;DHT22;8261;47.678;-122.174;2023-03-25T14:59:13;2.10;99.90
16305;DHT22;8261;47.678;-122.174;2023-03-25T15:01:46;2.20;99.90
16305;DHT22;8261;47.678;-122.174;2023-03-25T15:04:26;2.20;99.90
16305;DHT22;8261;47.678;-122.174;2023-03-25T15:06:59;2.30;99.90
16305;DHT22;8261;47.678;-122.174;2023-03-25T15:09:32;2.40;99.90
16305;DHT22;8261;47.678;-122.174;2023-03-25T15:12:04;2.40;99.90
16305;DHT22;8261;47.678;-122.174;2023-03-25T15:14:41;2.40;99.90
16305;DHT22;8261;47.678;-122.174;2023-03-25T15:17:41;2.40;99.90
16305;DHT22;8261;47.678;-122.174;2023-03-25T15:20:27;2.40;99.90
16305;DHT22;8261;47.678;-122.174;2023-03-25T15:23:33;2.50;99.90
16305;DHT22;8261;47.678;-122.174;2023-03-25T15:26:11;2.50;99.90
16305;DHT22;8261;47.678;-122.174;2023-03-25T15:28:56;2.40;99.90
16305;DHT22;8261;47.678;-122.174;2023-03-25T15:31:42;2.40;99.90
16305;DHT22;8261;47.678;-122.174;2023-03-25T15:48:17;2.70;99.90
16305;DHT22;8261;47.678;-122.174;2023-03-25T15:51:04;2.70;99.90
16305;DHT22;8261;47.678;-122.174;2023-03-25T15:53:58;2.70;99.90
16305;DHT22;8261;47.678;-122.174;2023-03-25T15:56:38;2.80;99.90
16305;DHT22;8261;47.678;-122.174;2023-03-25T15:59:24;2.70;99.90
16305;DHT22;8261;47.678;-122.174;2023-03-25T16:02:02;2.60;99.90
16305;DHT22;8261;47.678;-122.174;2023-03-25T16:04:39;2.50;99.90
16305;DHT22;8261;47.678;-122.174;2023-03-25T16:07:13;2.50;99.90
16305;DHT22;8261;47.678;-122.174;2023-03-25T16:09:47;2.60;99.90
16305;DHT22;8261;47.678;-122.174;2023-03-25T16:12:20;2.50;99.90
16305;DHT22;8261;47.678;-122.174;2023-03-25T16:15:25;2.60;99.90
16305;DHT22;8261;47.678;-122.174;2023-03-25T16:18:15;2.60;99.90
16305;DHT22;8261;47.678;-122.174;2023-03-25T16:20:53;2.70;99.90
16305;DHT22;8261;47.678;-122.174;2023-03-25T16:23:27;2.80;99.90
16305;DHT22;8261;47.678;-122.174;2023-03-25T16:25:59;3.00;99.90
16305;DHT22;8261;47.678;-122.174;2023-03-25T16:28:32;3.10;99.90
16305;DHT22;8261;47.678;-122.174;2023-03-25T16:31:04;3.20;99.90
16305;DHT22;8261;47.678;-122.174;2023-03-25T16:33:38;3.40;99.90
16305;DHT22;8261;47.678;-122.174;2023-03-25T16:36:15;3.70;99.90
16305;DHT22;8261;47.678;-122.174;2023-03-25T16:38:48;3.90;99.90
16305;DHT22;8261;47.678;-122.174;2023-03-25T16:41:19;4.00;99.90
16305;DHT22;8261;47.678;-122.174;2023-03-25T16:43:51;3.90;99.90
16305;DHT22;8261;47.678;-122.174;2023-03-25T16:46:23;4.10;99.90
16305;DHT22;8261;47.678;-122.174;2023-03-25T16:49:05;4.10;99.90
16305;DHT22;8261;47.678;-122.174;2023-03-25T16:51:39;4.30;99.90
16305;DHT22;8261;47.678;-122.174;2023-03-25T16:54:26;4.30;99.90
16305;DHT22;8261;47.678;-122.174;2023-03-25T16:56:59;4.40;99.90
16305;DHT22;8261;47.678;-122.174;2023-03-25T16:59:33;4.50;99.90
16305;DHT22;8261;47.678;-122.174;2023-03-25T17:02:23;4.40;99.90
16305;DHT22;8261;47.678;-122.174;2023-03-25T17:05:12;4.10;99.90
16305;DHT22;8261;47.678;-122.174;2023-03-25T17:07:46;4.20;99.90
16305;DHT22;8261;47.678;-122.174;2023-03-25T17:10:20;4.40;99.90
16305;DHT22;8261;47.678;-122.174;2023-03-25T17:12:55;4.50;99.90
16305;DHT22;8261;47.678;-122.174;2023-03-25T17:15:27;4.60;99.90
16305;DHT22;8261;47.678;-122.174;2023-03-25T17:18:04;4.70;99.90
16305;DHT22;8261;47.678;-122.174;2023-03-25T17:20:38;5.00;99.90
16305;DHT22;8261;47.678;-122.174;2023-03-25T17:23:24;5.20;99.90
16305;DHT22;8261;47.678;-122.174;2023-03-25T17:25:58;5.30;99.90
16305;DHT22;8261;47.678;-122.174;2023-03-25T17:28:34;5.20;99.90